Time;durP1;ratioP1;P1;durP2;ratioP2;P2;SDS_P1;SDS_P2;PMS_P1;PMS_P2;Temp;Humidity;BMP_temperature;BMP_pressure;BME280_temperature;BME280_humidity;BME280_pressure;Samples;Min_cycle;Max_cycle;Signal;HPM_P1;HPM_P2
2022/12/15 00:39:43;;;;;;;37.53;16.98;;;;;;;-10.24;100.00;150015.94;5073155;28;20040;-75
2022/12/15 00:42:09;;;;;;;38.75;17.00;;;;;;;-10.29;100.00;150003.28;5072587;28;20035;-75
2022/12/15 00:44:38;;;;;;;35.72;17.20;;;;;;;-10.22;100.00;150020.97;5025064;28;20036;-75
2022/12/15 00:47:04;;;;;;;41.47;17.90;;;;;;;-10.00;100.00;150075.28;5058056;28;20047;-76
2022/12/15 01:22:40;;;;;;;34.92;16.17;;;;;;;-9.55;100.00;150186.47;5047910;28;20043;-75
2022/12/15 01:25:07;;;;;;;44.10;17.85;;;;;;;-9.54;100.00;150187.78;5040788;28;20074;-75
2022/12/15 01:27:33;;;;;;;38.05;16.98;;;;;;;-9.48;100.00;150204.19;5067199;28;20060;-75
2022/12/15 01:29:59;;;;;;;45.05;16.98;;;;;;;-9.44;100.00;150213.03;5067861;28;20829;-75
2022/12/15 01:32:26;;;;;;;41.92;17.38;;;;;;;-9.37;100.00;150230.75;5060171;28;20048;-75
2022/12/15 01:34:54;;;;;;;44.65;17.92;;;;;;;-9.28;100.00;150252.25;5044580;28;20044;-75
2022/12/15 01:37:20;;;;;;;44.75;17.92;;;;;;;-9.29;100.00;150249.72;5054483;28;20045;-75
2022/12/15 01:42:30;;;;;;;37.33;16.17;;;;;;;-9.44;100.00;150214.28;5062695;28;20037;-75
2022/12/15 01:45:36;;;;;;;36.00;17.05;;;;;;;-9.53;100.00;150191.59;5054176;28;20113;-75
2022/12/15 01:48:06;;;;;;;42.20;16.88;;;;;;;-9.51;100.00;150195.34;5037061;28;20043;-75
2022/12/15 01:50:38;;;;;;;38.35;16.17;;;;;;;-9.61;100.00;150171.31;5061760;28;20127;-75
2022/12/15 01:53:04;;;;;;;34.63;15.55;;;;;;;-9.53;100.00;150190.28;5055448;28;20047;-75
2022/12/15 01:55:31;;;;;;;39.53;15.50;;;;;;;-9.37;100.00;150229.50;5058619;28;20135;-75
2022/12/15 01:58:02;;;;;;;34.95;15.68;;;;;;;-9.37;100.00;150229.50;5036821;28;20071;-75
2022/12/15 02:00:29;;;;;;;39.28;16.30;;;;;;;-9.36;100.00;150233.28;5038092;28;20040;-75
2022/12/15 02:02:57;;;;;;;33.65;15.57;;;;;;;-9.44;100.00;150213.03;5035067;28;20753;-75
2022/12/15 02:05:23;;;;;;;32.13;14.82;;;;;;;-9.52;100.00;150194.09;5024084;28;20036;-75
2022/12/15 02:07:49;;;;;;;33.13;14.98;;;;;;;-9.51;100.00;150195.34;5054283;28;20040;-76
2022/12/15 02:10:15;;;;;;;35.80;14.50;;;;;;;-9.62;100.00;150170.06;5049658;28;20140;-75
2022/12/15 02:13:08;;;;;;;33.05;15.02;;;;;;;-9.79;100.00;150127.13;5045238;28;20501;-75
2022/12/15 02:16:00;;;;;;;40.75;15.02;;;;;;;-9.95;100.00;150086.66;5049720;28;20088;-75
2022/12/15 02:18:44;;;;;;;32.78;14.55;;;;;;;-9.95;100.00;150086.66;5053389;28;20048;-75
2022/12/15 02:21:26;;;;;;;29.95;13.45;;;;;;;-10.00;100.00;150076.56;5041153;28;20054;-75
2022/12/15 02:24:29;;;;;;;33.85;14.30;;;;;;;-10.03;100.00;150068.97;5063205;28;20043;-76
2022/12/15 02:27:34;;;;;;;33.13;13.32;;;;;;;-10.11;100.00;150047.47;5023387;28;20589;-75
2022/12/15 02:30:09;;;;;;;37.88;15.05;;;;;;;-10.20;100.00;150027.28;5043687;28;20047;-75
2022/12/15 02:33:10;;;;;;;32.92;14.48;;;;;;;-10.13;100.00;150042.44;5047353;28;20043;-75
2022/12/15 02:35:46;;;;;;;31.63;13.90;;;;;;;-10.11;100.00;150047.47;5045891;28;20040;-75
2022/12/15 02:38:12;;;;;;;29.42;13.73;;;;;;;-10.05;100.00;150063.91;5050719;28;20115;-75
2022/12/15 02:40:38;;;;;;;33.45;13.70;;;;;;;-9.88;100.00;150105.63;5041927;28;20039;-75
2022/12/15 02:43:05;;;;;;;32.95;14.90;;;;;;;-9.75;100.00;150135.97;5033640;28;20072;-75
2022/12/15 02:45:42;;;;;;;35.70;14.95;;;;;;;-9.87;100.00;150108.16;5007271;28;20035;-75
2022/12/15 02:48:22;;;;;;;35.03;13.85;;;;;;;-9.92;100.00;150094.25;5044888;28;20028;-75
2022/12/15 02:50:50;;;;;;;32.25;13.63;;;;;;;-9.94;100.00;150090.47;5048560;28;21096;-75
2022/12/15 02:53:53;;;;;;;32.17;13.85;;;;;;;-9.90;100.00;150099.31;5033107;28;20686;-75
2022/12/15 02:56:33;;;;;;;34.47;14.40;;;;;;;-9.70;100.00;150149.88;5007901;28;20064;-75
2022/12/15 02:59:11;;;;;;;36.80;15.40;;;;;;;-9.56;100.00;150182.72;5060123;28;20043;-75
2022/12/15 03:01:59;;;;;;;30.27;13.02;;;;;;;-9.46;100.00;150209.25;5038321;28;20047;-75
2022/12/15 03:04:25;;;;;;;37.47;14.82;;;;;;;-9.52;100.00;150192.84;5055401;28;20032;-75
2022/12/15 03:06:56;;;;;;;36.72;14.13;;;;;;;-9.50;100.00;150199.13;5033632;28;20045;-75
2022/12/15 03:09:22;;;;;;;33.95;15.10;;;;;;;-9.51;100.00;150195.34;5049146;28;20064;-76
2022/12/15 03:11:48;;;;;;;34.75;15.45;;;;;;;-9.51;100.00;150196.63;5070693;28;20055;-75
2022/12/15 03:14:14;;;;;;;31.08;14.60;;;;;;;-9.44;100.00;150213.03;5036229;28;20025;-75
2022/12/15 03:16:39;;;;;;;34.72;14.73;;;;;;;-9.45;100.00;150211.78;5069692;28;20035;-75
2022/12/15 03:19:05;;;;;;;33.80;14.80;;;;;;;-9.41;100.00;150220.66;5032309;28;20029;-75
2022/12/15 03:21:31;;;;;;;33.47;14.95;;;;;;;-9.44;100.00;150213.03;5027719;28;20042;-75
2022/12/15 03:23:56;;;;;;;34.15;15.70;;;;;;;-9.52;100.00;150192.84;5038995;28;20071;-75
2022/12/15 03:26:22;;;;;;;28.83;14.38;;;;;;;-9.65;100.00;150161.22;5045723;28;20049;-75
2022/12/15 03:28:48;;;;;;;29.23;13.52;;;;;;;-9.84;100.00;150115.72;5036134;28;20131;-75
2022/12/15 03:31:13;;;;;;;35.72;14.27;;;;;;;-9.88;100.00;150104.38;5062168;28;20084;-75
2022/12/15 03:33:39;;;;;;;28.33;14.38;;;;;;;-9.88;100.00;150104.38;5061633;28;20028;-75
2022/12/15 03:36:05;;;;;;;30.48;13.50;;;;;;;-9.97;100.00;150082.88;5019375;28;20454;-75
2022/12/15 03:38:31;;;;;;;29.55;13.40;;;;;;;-10.09;100.00;150052.56;5038589;28;20036;-75
2022/12/15 03:40:57;;;;;;;31.80;13.75;;;;;;;-10.18;100.00;150031.06;5022186;28;20050;-75
2022/12/15 03:43:22;;;;;;;34.05;14.10;;;;;;;-10.13;100.00;150042.44;5042946;28;20044;-75
2022/12/15 03:45:48;;;;;;;29.55;13.45;;;;;;;-10.08;100.00;150055.06;5037385;28;20036;-75
2022/12/15 03:48:14;;;;;;;27.17;12.82;;;;;;;-10.09;100.00;150053.81;5058198;28;20153;-75
2022/12/15 03:50:40;;;;;;;31.58;13.68;;;;;;;-10.03;100.00;150067.72;5083518;28;20507;-75
2022/12/15 03:53:05;;;;;;;30.85;14.75;;;;;;;-9.97;100.00;150082.88;5077683;28;20032;-75
2022/12/15 03:55:33;;;;;;;38.50;13.88;;;;;;;-9.98;100.00;150080.38;5069061;28;20067;-75
2022/12/15 03:57:59;;;;;;;29.45;13.90;;;;;;;-9.98;100.00;150081.63;5038599;28;20183;-75
2022/12/15 04:00:27;;;;;;;35.72;14.73;;;;;;;-10.04;100.00;150065.19;5040129;28;20123;-75
2022/12/15 04:02:53;;;;;;;28.80;13.63;;;;;;;-10.06;100.00;150060.13;5038003;28;20024;-75
2022/12/15 04:05:25;;;;;;;30.25;13.77;;;;;;;-10.10;100.00;150051.28;5044989;28;20031;-75
2022/12/15 04:07:52;;;;;;;31.98;14.13;;;;;;;-10.10;100.00;150051.28;5063647;28;20036;-75
2022/12/15 04:10:18;;;;;;;32.10;13.70;;;;;;;-10.11;100.00;150048.78;5052574;28;20528;-75
2022/12/15 04:12:43;;;;;;;35.03;14.73;;;;;;;-10.03;100.00;150068.97;5041282;28;20029;-75
2022/12/15 04:15:10;;;;;;;33.60;13.05;;;;;;;-10.03;100.00;150068.97;5044503;28;20044;-75
2022/12/15 04:17:37;;;;;;;33.33;14.88;;;;;;;-10.09;100.00;150052.56;5056154;28;20174;-76
2022/12/15 04:20:10;;;;;;;41.10;15.05;;;;;;;-10.11;100.00;150048.78;5044831;28;20036;-75
2022/12/15 04:22:41;;;;;;;33.97;14.77;;;;;;;-10.04;100.00;150065.19;5054606;28;20036;-75
2022/12/15 05:33:55;;;;;;;32.70;13.48;;;;;;;-9.79;100.00;150127.13;5034203;28;20044;-75
2022/12/15 05:36:22;;;;;;;29.95;14.02;;;;;;;-9.78;100.00;150129.63;5052097;28;20491;-75
2022/12/15 05:38:51;;;;;;;31.27;13.63;;;;;;;-9.79;100.00;150127.13;5042846;28;20116;-75
2022/12/15 05:41:18;;;;;;;33.95;14.35;;;;;;;-9.80;100.00;150125.81;5050101;28;20048;-75
2022/12/15 05:43:45;;;;;;;38.03;15.80;;;;;;;-9.79;100.00;150127.13;5033379;28;20039;-75
2022/12/15 05:46:13;;;;;;;34.55;15.55;;;;;;;-9.80;100.00;150125.81;5011676;28;20626;-75
2022/12/15 05:48:39;;;;;;;35.20;14.60;;;;;;;-9.82;100.00;150120.78;5031693;28;20457;-75
2022/12/15 05:51:09;;;;;;;35.08;13.98;;;;;;;-9.84;100.00;150115.72;5064398;28;20047;-75
2022/12/15 05:53:37;;;;;;;33.45;14.45;;;;;;;-9.83;100.00;150116.97;5033113;28;20458;-75
2022/12/15 05:56:05;;;;;;;35.95;14.38;;;;;;;-9.85;100.00;150111.91;5023619;28;20493;-75
2022/12/15 05:58:31;;;;;;;32.50;14.02;;;;;;;-9.85;100.00;150113.22;5070662;28;20063;-75
2022/12/15 06:01:08;;;;;;;32.20;14.93;;;;;;;-9.81;100.00;150123.31;5047074;28;20064;-75
2022/12/15 06:03:34;;;;;;;35.58;14.45;;;;;;;-9.85;100.00;150111.91;5029437;28;20781;-75
2022/12/15 06:06:01;;;;;;;35.67;14.68;;;;;;;-9.76;100.00;150133.41;5039496;28;20048;-75
2022/12/15 06:08:29;;;;;;;31.65;14.30;;;;;;;-9.79;100.00;150128.38;5055535;28;20039;-75
2022/12/15 06:10:55;;;;;;;32.58;14.68;;;;;;;-9.82;100.00;150119.53;5018010;28;20115;-75
2022/12/15 06:13:22;;;;;;;30.67;13.90;;;;;;;-9.82;100.00;150120.78;5051905;28;20037;-75
2022/12/15 06:16:01;;;;;;;32.08;14.73;;;;;;;-9.80;100.00;150125.81;5055458;28;20090;-75
2022/12/15 06:18:29;;;;;;;35.00;14.88;;;;;;;-9.81;100.00;150123.31;5055168;28;20055;-75
2022/12/15 06:20:57;;;;;;;33.55;14.73;;;;;;;-9.83;100.00;150118.28;5017982;28;20170;-75
2022/12/15 06:23:23;;;;;;;34.92;15.00;;;;;;;-9.82;100.00;150120.78;5033445;28;20044;-75
2022/12/15 06:25:48;;;;;;;35.30;14.95;;;;;;;-9.80;100.00;150124.56;5034792;28;20250;-74
2022/12/15 06:28:15;;;;;;;35.28;14.93;;;;;;;-9.82;100.00;150119.53;5019263;28;20036;-75
2022/12/15 06:30:41;;;;;;;35.80;14.27;;;;;;;-9.86;100.00;150109.41;5043262;28;20609;-75
2022/12/15 06:33:06;;;;;;;35.72;14.90;;;;;;;-9.84;100.00;150114.47;5052956;28;20047;-75
2022/12/15 06:35:36;;;;;;;35.70;15.13;;;;;;;-9.85;100.00;150111.91;5027359;28;20036;-75
2022/12/15 06:38:02;;;;;;;35.97;14.75;;;;;;;-9.85;100.00;150111.91;5038540;28;20102;-75
2022/12/15 06:40:27;;;;;;;35.42;15.05;;;;;;;-9.84;100.00;150114.47;5038214;28;20091;-75
2022/12/15 06:42:53;;;;;;;37.80;15.43;;;;;;;-9.85;100.00;150111.91;5065910;28;20529;-75
2022/12/15 06:45:19;;;;;;;30.30;13.63;;;;;;;-9.84;100.00;150115.72;5045294;28;20048;-75
2022/12/15 06:47:44;;;;;;;34.33;15.40;;;;;;;-9.81;100.00;150122.06;5037050;28;20659;-76
2022/12/15 06:50:10;;;;;;;37.63;15.07;;;;;;;-9.76;100.00;150133.41;5043411;28;20041;-75
2022/12/15 06:52:35;;;;;;;38.25;14.73;;;;;;;-9.80;100.00;150125.81;5073612;28;20115;-75
2022/12/15 06:55:01;;;;;;;32.97;14.77;;;;;;;-9.75;100.00;150135.97;5039430;28;20111;-75
2022/12/15 06:57:27;;;;;;;37.90;15.60;;;;;;;-9.67;100.00;150156.19;5058146;28;20115;-75
2022/12/15 06:59:52;;;;;;;37.40;13.77;;;;;;;-9.53;100.00;150190.28;5036660;28;20035;-75
2022/12/15 07:02:18;;;;;;;37.05;16.25;;;;;;;-9.34;100.00;150238.34;5048118;28;20135;-75
2022/12/15 07:04:43;;;;;;;32.50;14.45;;;;;;;-9.26;100.00;150258.56;5028979;28;20083;-76
2022/12/15 07:07:09;;;;;;;36.22;15.68;;;;;;;-9.22;100.00;150268.66;5046106;28;20043;-76
2022/12/15 07:09:35;;;;;;;41.08;14.63;;;;;;;-9.22;100.00;150267.41;5047415;28;20047;-76
2022/12/15 07:12:01;;;;;;;31.15;14.35;;;;;;;-9.27;100.00;150254.75;5040576;28;20040;-75
2022/12/15 07:14:27;;;;;;;35.60;14.82;;;;;;;-9.21;100.00;150269.91;5014348;28;20037;-76
2022/12/15 07:16:56;;;;;;;36.45;14.85;;;;;;;-9.18;100.00;150276.28;5066663;28;20536;-77
2022/12/15 07:19:21;;;;;;;32.42;14.80;;;;;;;-9.09;100.00;150300.28;5047818;28;20040;-76
2022/12/15 07:21:47;;;;;;;34.22;16.20;;;;;;;-8.99;100.00;150323.06;5023924;28;20375;-77
2022/12/15 07:24:13;;;;;;;34.28;14.93;;;;;;;-8.86;100.00;150357.19;5032063;28;20513;-76
2022/12/15 07:26:39;;;;;;;36.42;15.85;;;;;;;-8.74;100.00;150385.00;5047227;28;20036;-76
2022/12/15 07:29:04;;;;;;;35.80;15.35;;;;;;;-8.71;100.00;150392.63;5046659;28;20031;-77
2022/12/15 07:31:30;;;;;;;36.85;15.65;;;;;;;-8.67;100.00;150403.97;5027653;28;20039;-76
2022/12/15 07:33:57;;;;;;;36.25;15.95;;;;;;;-8.64;100.00;150410.31;5058659;28;20032;-76
2022/12/15 07:36:23;;;;;;;34.40;15.45;;;;;;;-8.59;100.00;150421.69;5047640;28;20409;-77
2022/12/15 07:38:49;;;;;;;40.03;17.05;;;;;;;-8.47;100.00;150452.09;5025787;28;20029;-76
2022/12/15 07:41:14;;;;;;;41.33;17.10;;;;;;;-8.34;100.00;150484.91;5056248;28;20184;-76
2022/12/15 07:43:40;;;;;;;41.17;16.23;;;;;;;-8.32;100.00;150489.97;5045110;28;20767;-76
2022/12/15 07:46:06;;;;;;;44.53;17.60;;;;;;;-8.26;100.00;150505.16;5060469;28;20817;-76
2022/12/15 07:48:32;;;;;;;46.10;18.45;;;;;;;-8.10;100.00;150543.09;5055526;28;20045;-77
2022/12/15 07:50:58;;;;;;;49.05;18.88;;;;;;;-7.94;100.00;150583.63;5036886;28;20042;-76
2022/12/15 07:53:26;;;;;;;40.03;16.98;;;;;;;-7.89;100.00;150595.00;5031545;28;20082;-77
2022/12/15 07:55:54;;;;;;;37.92;17.15;;;;;;;-7.84;100.00;150608.91;5045077;28;20047;-76
2022/12/15 07:58:19;;;;;;;37.17;17.63;;;;;;;-7.86;100.00;150603.84;5045673;28;20043;-77
2022/12/15 08:00:45;;;;;;;40.28;17.45;;;;;;;-7.90;100.00;150592.47;5040636;28;20566;-76
2022/12/15 08:03:11;;;;;;;39.72;16.20;;;;;;;-7.65;100.00;150654.50;5048219;28;20020;-76
2022/12/15 08:05:36;;;;;;;44.70;19.08;;;;;;;-7.47;100.00;150700.09;5024149;28;20033;-77
2022/12/15 08:08:02;;;;;;;36.78;16.95;;;;;;;-7.26;100.00;150750.72;5050892;28;20051;-77
2022/12/15 08:10:27;;;;;;;44.30;18.70;;;;;;;-7.03;100.00;150807.72;5047152;28;20086;-77
2022/12/15 08:12:56;;;;;;;37.85;19.00;;;;;;;-6.90;100.00;150839.38;5048621;28;20067;-76
2022/12/15 08:15:21;;;;;;;39.30;18.75;;;;;;;-6.86;100.00;150850.78;5044882;28;20120;-77
2022/12/15 08:17:47;;;;;;;35.15;17.63;;;;;;;-6.72;100.00;150883.75;5032268;28;20032;-77
2022/12/15 08:20:14;;;;;;;40.83;19.27;;;;;;;-6.70;100.00;150890.06;5035801;28;20043;-77
2022/12/15 08:22:39;;;;;;;38.65;18.48;;;;;;;-6.81;100.00;150862.19;5036692;28;20116;-76
2022/12/15 08:25:05;;;;;;;35.67;17.83;;;;;;;-6.95;100.00;150826.72;5043673;28;20051;-77
2022/12/15 08:27:31;;;;;;;38.13;18.17;;;;;;;-6.85;100.00;150852.06;5047201;28;20036;-76
2022/12/15 08:29:56;;;;;;;33.70;16.75;;;;;;;-6.71;100.00;150886.25;5043764;28;20166;-76
2022/12/15 08:32:23;;;;;;;37.38;17.27;;;;;;;-6.64;100.00;150902.75;5025582;28;20080;-76
2022/12/15 08:34:49;;;;;;;38.88;19.38;;;;;;;-6.59;100.00;150916.69;5042294;28;20482;-77
2022/12/15 08:37:14;;;;;;;36.08;18.10;;;;;;;-6.52;100.00;150934.38;5043229;28;20036;-77
2022/12/15 08:39:40;;;;;;;32.45;16.40;;;;;;;-6.46;100.00;150949.63;5019676;28;20028;-77
2022/12/15 08:42:07;;;;;;;34.53;18.20;;;;;;;-6.16;100.00;151023.16;5050081;28;20097;-76
2022/12/15 08:44:32;;;;;;;34.42;18.10;;;;;;;-5.94;100.00;151076.31;5053766;28;20040;-76
2022/12/15 08:46:58;;;;;;;38.90;18.63;;;;;;;-5.75;100.00;151124.47;5061560;28;20029;-77
2022/12/15 08:49:24;;;;;;;35.17;18.27;;;;;;;-5.68;100.00;151142.25;5036168;28;20089;-76
2022/12/15 08:51:50;;;;;;;36.17;18.13;;;;;;;-5.48;100.00;151191.72;5039945;28;20032;-77
2022/12/15 08:54:16;;;;;;;34.58;17.50;;;;;;;-5.43;100.00;151203.09;5041405;28;20043;-77
2022/12/15 08:56:42;;;;;;;39.15;18.05;;;;;;;-5.32;100.00;151229.75;5026374;28;20313;-77
2022/12/15 08:59:08;;;;;;;35.08;17.35;;;;;;;-5.16;100.00;151269.06;5059035;28;20028;-77
2022/12/15 09:01:38;;;;;;;34.88;17.80;;;;;;;-5.09;100.00;151288.06;5054268;28;20043;-76
2022/12/15 09:04:04;;;;;;;35.08;16.45;;;;;;;-4.97;100.00;151316.00;5024946;28;20039;-77
2022/12/15 09:06:34;;;;;;;39.80;20.25;;;;;;;-4.90;100.00;151333.75;5044114;28;20065;-76
2022/12/15 09:09:03;;;;;;;39.05;19.25;;;;;;;-4.71;100.00;151382.00;5029979;28;20046;-77
2022/12/15 09:11:29;;;;;;;37.95;19.30;;;;;;;-4.64;100.00;151398.47;5025123;28;20087;-76
2022/12/15 09:13:55;;;;;;;35.70;18.10;;;;;;;-4.57;100.00;151415.00;5024185;28;20116;-77
2022/12/15 09:16:21;;;;;;;42.10;19.63;;;;;;;-4.46;100.00;151442.94;5040368;28;20932;-75
2022/12/15 09:18:50;;;;;;;37.72;19.00;;;;;;;-4.23;100.00;151500.03;5018110;28;20039;-76
2022/12/15 09:21:17;;;;;;;38.67;19.38;;;;;;;-4.15;100.00;151520.31;5040874;28;20404;-77
2022/12/15 09:23:46;;;;;;;35.40;18.55;;;;;;;-4.13;100.00;151524.16;5024880;28;20572;-76
2022/12/15 09:26:13;;;;;;;40.83;19.75;;;;;;;-4.06;100.00;151541.94;5050607;28;20097;-77
2022/12/15 09:28:40;;;;;;;35.88;18.17;;;;;;;-4.04;100.00;151547.00;5058544;28;20535;-76
2022/12/15 09:31:10;;;;;;;33.85;18.05;;;;;;;-3.86;100.00;151590.16;5033761;28;20029;-77
2022/12/15 09:33:37;;;;;;;38.90;18.25;;;;;;;-3.69;100.00;151633.38;5030461;28;20541;-77
2022/12/15 09:36:04;;;;;;;37.25;18.77;;;;;;;-3.67;100.00;151638.44;5038316;28;20060;-77
2022/12/15 09:38:32;;;;;;;37.90;19.27;;;;;;;-3.63;100.00;151648.59;5026627;28;20038;-77
2022/12/15 09:41:07;;;;;;;30.65;17.73;;;;;;;-3.68;100.00;151634.63;5058039;28;20036;-76
2022/12/15 09:43:33;;;;;;;36.20;18.63;;;;;;;-3.67;100.00;151637.16;5028534;28;20599;-76
2022/12/15 09:46:05;;;;;;;42.33;18.77;;;;;;;-3.62;100.00;151651.13;5025602;28;20064;-76
2022/12/15 09:48:44;;;;;;;33.15;18.30;;;;;;;-3.56;100.00;151665.09;5036954;28;20660;-77
2022/12/15 09:51:15;;;;;;;36.50;19.70;;;;;;;-3.56;100.00;151665.09;5040768;28;20715;-76
2022/12/15 09:53:41;;;;;;;32.60;18.08;;;;;;;-3.59;100.00;151658.75;5030556;28;20032;-76
2022/12/15 09:56:19;;;;;;;36.13;17.90;;;;;;;-3.54;100.00;151670.22;5015372;28;20075;-76
2022/12/15 09:59:12;;;;;;;32.95;19.63;;;;;;;-3.39;100.00;151707.00;5032260;28;20489;-77
2022/12/15 10:01:44;;;;;;;39.83;19.83;;;;;;;-3.34;100.00;151719.72;5021327;28;20047;-76
2022/12/15 10:04:18;;;;;;;30.15;17.80;;;;;;;-3.15;100.00;151766.72;5035562;28;20047;-77
2022/12/15 10:07:02;;;;;;;33.13;17.23;;;;;;;-3.13;100.00;151773.09;5065460;28;20037;-76
2022/12/15 10:09:29;;;;;;;34.85;17.60;;;;;;;-3.21;100.00;151751.50;5059749;28;20035;-77
2022/12/15 10:12:07;;;;;;;29.80;17.33;;;;;;;-3.16;100.00;151765.47;5047847;28;20028;-76
2022/12/15 10:14:48;;;;;;;31.63;17.55;;;;;;;-3.10;100.00;151778.19;5023453;28;20106;-76
2022/12/15 10:17:26;;;;;;;39.55;18.67;;;;;;;-3.13;100.00;151771.81;5054499;28;20131;-76
2022/12/15 10:20:05;;;;;;;40.00;20.95;;;;;;;-3.13;100.00;151773.09;5056610;28;20067;-76
2022/12/15 10:22:36;;;;;;;35.83;19.63;;;;;;;-3.19;100.00;151756.56;5057538;28;20036;-76
2022/12/15 10:25:19;;;;;;;35.80;18.15;;;;;;;-3.12;100.00;151774.38;5017137;28;20730;-76
2022/12/15 10:28:23;;;;;;;35.33;18.67;;;;;;;-3.10;100.00;151779.44;5038419;28;20100;-76
2022/12/15 10:30:57;;;;;;;41.20;23.10;;;;;;;-2.93;100.00;151821.38;5033845;28;20178;-76
2022/12/15 10:33:24;;;;;;;45.55;24.17;;;;;;;-2.92;100.00;151823.88;5043684;28;20079;-76
2022/12/15 10:35:54;;;;;;;39.13;25.92;;;;;;;-2.95;100.00;151816.28;5016425;28;20043;-76
2022/12/15 10:38:33;;;;;;;43.10;23.38;;;;;;;-2.96;100.00;151815.03;5050551;28;20056;-76
2022/12/15 10:41:02;;;;;;;47.15;27.33;;;;;;;-2.81;100.00;151851.84;5069211;28;20388;-77
2022/12/15 10:43:42;;;;;;;37.88;22.40;;;;;;;-2.81;100.00;151851.84;5015975;28;20665;-76
2022/12/15 10:46:26;;;;;;;34.72;19.95;;;;;;;-2.78;100.00;151859.50;5040535;28;20032;-76
2022/12/15 10:48:55;;;;;;;39.75;18.55;;;;;;;-2.69;100.00;151879.81;5029285;28;20043;-76
2022/12/15 10:51:35;;;;;;;28.95;18.08;;;;;;;-2.58;100.00;151907.78;5048474;28;20039;-76
2022/12/15 10:54:12;;;;;;;34.63;17.83;;;;;;;-2.55;100.00;151916.66;5024950;28;20119;-76
2022/12/15 10:56:58;;;;;;;36.85;19.73;;;;;;;-2.33;100.00;151970.09;5029201;28;20027;-76
2022/12/15 10:59:34;;;;;;;37.30;19.05;;;;;;;-2.24;100.00;151992.97;5062420;28;20044;-76
2022/12/15 11:02:19;;;;;;;35.38;18.50;;;;;;;-2.18;100.00;152008.22;5025686;28;20489;-76
2022/12/15 11:05:14;;;;;;;33.15;18.13;;;;;;;-2.24;100.00;151991.69;5022980;28;20078;-77
2022/12/15 11:07:49;;;;;;;33.53;17.20;;;;;;;-2.24;100.00;151992.97;5051660;28;20060;-75
2022/12/15 11:10:26;;;;;;;33.63;17.55;;;;;;;-2.19;100.00;152004.41;5049318;28;20064;-76
2022/12/15 11:13:11;;;;;;;33.08;17.63;;;;;;;-2.24;100.00;151992.97;5035219;28;20636;-76
2022/12/15 11:15:44;;;;;;;29.92;15.38;;;;;;;-2.18;100.00;152006.97;5039113;28;20040;-76
2022/12/15 11:18:33;;;;;;;32.33;18.15;;;;;;;-2.18;100.00;152008.22;5035702;28;20048;-76
2022/12/15 11:21:05;;;;;;;31.05;17.17;;;;;;;-2.08;100.00;152031.13;5024002;28;20451;-76
2022/12/15 11:23:46;;;;;;;26.48;17.27;;;;;;;-2.13;100.00;152018.38;5041805;28;20043;-76
2022/12/15 11:26:55;;;;;;;29.85;17.95;;;;;;;-2.18;100.00;152006.97;5082174;28;20032;-76
2022/12/15 11:29:23;;;;;;;28.27;17.33;;;;;;;-2.11;100.00;152023.47;4938779;28;20125;-76
2022/12/15 11:31:51;;;;;;;28.20;16.38;;;;;;;-2.08;100.00;152032.38;5043288;28;20379;-76
2022/12/15 11:34:21;;;;;;;32.55;17.60;;;;;;;-2.15;100.00;152014.56;5043195;28;20103;-76
2022/12/15 11:37:26;;;;;;;35.65;17.88;;;;;;;-2.05;100.00;152038.78;5029306;28;20032;-77
2022/12/15 11:40:12;;;;;;;32.85;16.35;;;;;;;-2.01;100.00;152050.19;5013465;28;20498;-77
2022/12/15 11:42:47;;;;;;;27.05;15.80;;;;;;;-1.90;100.00;152075.59;5040029;28;20044;-77
2022/12/15 11:45:32;;;;;;;32.15;16.95;;;;;;;-1.77;100.00;152109.97;5040863;28;20511;-77
2022/12/15 11:48:10;;;;;;;27.55;17.00;;;;;;;-1.80;100.00;152102.31;5025602;28;20113;-76
2022/12/15 11:51:10;;;;;;;34.95;20.08;;;;;;;-1.92;100.00;152071.81;5037908;28;20033;-75
2022/12/15 11:53:45;;;;;;;33.90;18.48;;;;;;;-1.91;100.00;152074.34;5024724;28;20117;-76
2022/12/15 11:56:25;;;;;;;27.75;17.48;;;;;;;-1.91;100.00;152073.09;5062318;28;20040;-76
2022/12/15 11:59:22;;;;;;;30.77;16.83;;;;;;;-1.70;100.00;152125.22;5049582;28;20020;-76
2022/12/15 12:02:26;;;;;;;25.88;15.63;;;;;;;-1.75;100.00;152113.78;5040054;28;20116;-76
2022/12/15 12:05:18;;;;;;;32.78;16.42;;;;;;;-1.69;100.00;152127.78;5044415;28;20334;-76
2022/12/15 12:08:21;;;;;;;30.93;16.07;;;;;;;-1.58;100.00;152157.03;5054052;28;20040;-76
2022/12/15 12:10:47;;;;;;;27.90;16.02;;;;;;;-1.47;100.00;152183.75;5058681;28;20036;-75
2022/12/15 12:13:22;;;;;;;23.23;15.40;;;;;;;-1.57;100.00;152159.53;5076293;28;20044;-74
2022/12/15 12:16:04;;;;;;;25.88;15.93;;;;;;;-1.59;100.00;152153.22;5061941;28;20043;-76
2022/12/15 12:18:39;;;;;;;27.83;15.98;;;;;;;-1.54;100.00;152165.94;5045606;28;20075;-76
2022/12/15 12:21:34;;;;;;;25.98;16.02;;;;;;;-1.51;100.00;152172.28;5047516;28;20029;-76
2022/12/15 12:24:18;;;;;;;21.48;14.70;;;;;;;-1.44;100.00;152191.34;5037303;28;20081;-76
2022/12/15 12:27:11;;;;;;;27.60;15.80;;;;;;;-1.32;100.00;152219.34;5030808;28;20035;-76
2022/12/15 12:29:40;;;;;;;;;;;;;;;-1.21;100.00;152248.59;5046826;28;20036;-76
2022/12/15 12:32:28;;;;;;;25.13;13.70;;;;;;;-1.12;100.00;152269.00;5040225;28;19916;-76
2022/12/15 12:35:00;;;;;;;27.10;15.02;;;;;;;-0.91;100.00;152321.16;5053439;28;20048;-76
2022/12/15 12:37:42;;;;;;;24.55;13.88;;;;;;;-0.84;100.00;152340.25;5045269;28;20097;-76
2022/12/15 12:40:17;;;;;;;23.10;14.18;;;;;;;-0.74;100.00;152364.44;5046756;28;20025;-75
2022/12/15 12:42:55;;;;;;;19.70;10.88;;;;;;;-0.61;100.00;152397.53;5034187;28;20036;-75
2022/12/15 12:45:28;;;;;;;21.08;10.82;;;;;;;-0.41;100.00;152445.94;5042956;28;20028;-76
2022/12/15 12:47:59;;;;;;;17.85;10.10;;;;;;;-0.34;100.00;152463.75;5052149;28;20036;-75
2022/12/15 12:50:27;;;;;;;23.15;12.98;;;;;;;-0.32;100.00;152467.53;5042188;28;20398;-76
2022/12/15 12:52:57;;;;;;;25.92;15.30;;;;;;;-0.45;100.00;152437.00;5022604;28;20170;-75
2022/12/15 12:55:24;;;;;;;20.05;11.30;;;;;;;-0.47;100.00;152430.63;5044958;28;20045;-75
2022/12/15 12:57:51;;;;;;;21.38;9.95;;;;;;;-0.34;100.00;152463.75;5042965;28;20043;-75
2022/12/15 13:00:31;;;;;;;20.52;9.85;;;;;;;-0.31;100.00;152471.38;5041345;28;20040;-75
2022/12/15 13:03:19;;;;;;;18.38;10.50;;;;;;;-0.28;100.00;152477.75;5043286;28;20064;-75
2022/12/15 13:05:47;;;;;;;17.55;9.63;;;;;;;-0.20;100.00;152498.13;5040239;28;20100;-75
2022/12/15 13:08:13;;;;;;;16.48;10.07;;;;;;;-0.26;100.00;152484.13;5043364;28;20032;-75
2022/12/15 13:10:41;;;;;;;19.17;9.82;;;;;;;-0.23;100.00;152490.47;5046396;28;20036;-75
2022/12/15 13:13:40;;;;;;;19.55;9.70;;;;;;;-0.20;100.00;152499.38;5069335;28;20551;-75
2022/12/15 13:16:18;;;;;;;14.95;9.10;;;;;;;-0.18;100.00;152501.94;5035971;28;20055;-75
2022/12/15 13:18:57;;;;;;;18.67;9.75;;;;;;;-0.15;100.00;152509.56;5053981;28;20093;-75
2022/12/15 13:21:44;;;;;;;20.92;9.23;;;;;;;-0.25;100.00;152486.63;5041273;28;20045;-75
2022/12/15 13:24:32;;;;;;;16.02;9.75;;;;;;;-0.26;100.00;152482.84;5039917;28;20032;-74
2022/12/15 13:27:07;;;;;;;22.20;10.25;;;;;;;-0.18;100.00;152503.22;5040516;28;20126;-74
2022/12/15 13:29:53;;;;;;;16.85;10.05;;;;;;;-0.08;100.00;152527.41;5044417;28;20027;-76
2022/12/15 13:32:39;;;;;;;20.95;9.80;;;;;;;-0.04;100.00;152538.88;5035361;28;20401;-74
2022/12/15 13:35:11;;;;;;;18.40;9.27;;;;;;;-0.06;100.00;152533.78;5034822;28;20059;-75
2022/12/15 13:37:47;;;;;;;16.35;9.52;;;;;;;-0.12;100.00;152517.22;5034077;28;20048;-75
2022/12/15 13:40:32;;;;;;;18.08;8.88;;;;;;;-0.09;100.00;152526.13;5043032;28;20083;-75
2022/12/15 13:43:03;;;;;;;23.85;9.40;;;;;;;-0.14;100.00;152513.38;5065916;28;20071;-75
2022/12/15 13:45:47;;;;;;;17.90;9.65;;;;;;;-0.17;100.00;152505.78;5049247;28;20072;-75
2022/12/15 13:48:20;;;;;;;22.20;9.45;;;;;;;-0.08;100.00;152527.41;5066121;28;20049;-75